Terminal Aerodrome Forecast
Issued by NWS

Home | Current Version | Previous Version | Text Only | Print | Product List | Glossary On
Versions: 1 2 3 4 5 6 7 8 9 10 11 12 13 14
007
FTUS45 KRIW 112331
TAFCPR
TAF
KCPR 112331Z 1200/1224 22010KT P6SM SCT250
     FM120600 22008KT P6SM SCT070 BKN120
     FM121800 20010G15KT P6SM BKN150=

USA.gov is the U.S. government's official web portal to all federal, state and local government web resources and services.